createdAt,value
2023-03-30T00:00:20.753Z,14.60
2023-03-30T00:02:49.549Z,14.50
2023-03-30T00:05:23.871Z,14.60
2023-03-30T00:07:50.965Z,14.60
2023-03-30T00:10:18.965Z,14.60
2023-03-30T00:12:47.366Z,14.60
2023-03-30T00:15:16.566Z,14.60
2023-03-30T00:17:44.422Z,14.60
2023-03-30T00:20:13.008Z,14.60
2023-03-30T00:22:40.621Z,14.60
2023-03-30T00:25:09.645Z,14.50
2023-03-30T00:27:37.455Z,14.60
2023-03-30T00:30:05.915Z,14.50
2023-03-30T00:32:34.287Z,14.50
2023-03-30T00:35:01.472Z,14.50
2023-03-30T00:37:29.694Z,14.50
2023-03-30T00:39:56.709Z,14.50
2023-03-30T00:42:23.468Z,14.50
2023-03-30T00:45:27.739Z,14.50
2023-03-30T00:48:01.985Z,14.60
2023-03-30T00:51:02.370Z,14.60
2023-03-30T00:53:35.711Z,14.60
2023-03-30T00:56:03.658Z,14.60
2023-03-30T00:58:31.324Z,14.60
2023-03-30T01:01:00.577Z,14.70
2023-03-30T01:03:33.583Z,14.70
2023-03-30T01:06:02.236Z,14.70
2023-03-30T01:08:35.202Z,14.60
2023-03-30T01:11:03.052Z,14.60
2023-03-30T01:13:32.181Z,14.50
2023-03-30T01:16:07.804Z,14.40
2023-03-30T01:18:55.162Z,14.40
2023-03-30T01:21:35.271Z,14.30
2023-03-30T01:25:05.208Z,14.20
2023-03-30T01:28:00.837Z,14.10
2023-03-30T01:30:52.192Z,14.10
2023-03-30T01:33:45.877Z,14.00
2023-03-30T01:36:41.754Z,14.00
2023-03-30T01:39:40.212Z,14.00
2023-03-30T01:42:28.815Z,13.90
2023-03-30T01:45:40.939Z,13.90
2023-03-30T01:48:13.880Z,13.90
2023-03-30T01:50:43.166Z,13.90
2023-03-30T01:53:18.811Z,13.90
2023-03-30T01:55:49.918Z,13.90
2023-03-30T01:58:23.270Z,13.90
2023-03-30T02:00:51.074Z,13.90
2023-03-30T02:03:22.545Z,13.80
2023-03-30T02:05:52.309Z,13.80
2023-03-30T02:08:22.453Z,13.80
2023-03-30T02:10:49.338Z,13.80
2023-03-30T02:13:16.558Z,13.80
2023-03-30T02:15:46.542Z,13.80
2023-03-30T02:18:13.209Z,13.80
2023-03-30T02:20:39.980Z,13.80
2023-03-30T02:23:07.304Z,13.80
2023-03-30T02:25:36.522Z,13.70
2023-03-30T02:28:03.864Z,13.60
2023-03-30T02:30:36.190Z,13.60
2023-03-30T02:33:03.281Z,13.50
2023-03-30T02:35:56.423Z,13.30
2023-03-30T02:38:43.890Z,13.20
2023-03-30T02:41:32.336Z,13.10
2023-03-30T02:44:22.103Z,12.90
2023-03-30T02:47:01.883Z,12.80
2023-03-30T02:50:09.975Z,12.80
2023-03-30T02:52:43.000Z,12.70
2023-03-30T02:55:11.634Z,12.90
2023-03-30T02:58:09.160Z,12.60
2023-03-30T03:00:49.516Z,12.60
2023-03-30T03:03:25.432Z,12.60
2023-03-30T03:05:55.969Z,12.50
2023-03-30T03:08:24.799Z,12.50
2023-03-30T03:10:51.839Z,12.50
2023-03-30T03:13:20.776Z,12.50
2023-03-30T03:15:49.466Z,12.40
2023-03-30T03:18:16.395Z,12.50
2023-03-30T03:20:43.177Z,12.50
2023-03-30T03:23:09.899Z,12.50
2023-03-30T03:25:36.947Z,12.60
2023-03-30T03:28:03.862Z,12.60
2023-03-30T03:30:30.572Z,12.60
2023-03-30T03:32:57.314Z,12.50
2023-03-30T03:35:24.179Z,12.50
2023-03-30T03:37:50.849Z,12.50
2023-03-30T03:40:17.566Z,12.60
2023-03-30T03:42:44.192Z,12.60
2023-03-30T03:45:11.337Z,12.60
2023-03-30T03:47:38.049Z,12.60
2023-03-30T03:50:09.264Z,12.50
2023-03-30T03:52:36.821Z,12.60
2023-03-30T03:55:04.971Z,12.50
2023-03-30T03:57:31.799Z,12.50
2023-03-30T03:59:59.788Z,12.50
2023-03-30T04:02:27.609Z,12.50
2023-03-30T04:04:54.726Z,12.50
2023-03-30T04:07:21.595Z,12.50
2023-03-30T04:09:48.398Z,12.50
2023-03-30T04:12:15.052Z,12.40
2023-03-30T04:14:41.753Z,12.40
2023-03-30T04:17:08.561Z,12.40
2023-03-30T04:19:36.031Z,12.40
2023-03-30T04:22:05.933Z,12.40
2023-03-30T04:24:35.420Z,12.40
2023-03-30T04:27:02.735Z,12.40
2023-03-30T04:29:29.716Z,12.40
2023-03-30T04:31:56.664Z,12.40
2023-03-30T04:34:23.402Z,12.40
2023-03-30T04:36:50.543Z,12.40
2023-03-30T04:39:18.314Z,12.30
2023-03-30T04:41:46.024Z,12.30
2023-03-30T04:44:12.810Z,12.30
2023-03-30T04:46:39.626Z,12.30
2023-03-30T04:49:06.355Z,12.30
2023-03-30T04:51:33.218Z,12.30
2023-03-30T04:53:59.981Z,12.40
2023-03-30T04:56:27.794Z,12.40
2023-03-30T04:58:54.698Z,12.40
2023-03-30T05:01:21.470Z,12.40
2023-03-30T05:03:48.278Z,12.40
2023-03-30T05:06:15.044Z,12.40
2023-03-30T05:08:41.968Z,12.40
2023-03-30T05:11:09.112Z,12.40
2023-03-30T05:13:35.845Z,12.40
2023-03-30T05:16:02.550Z,12.40
2023-03-30T05:18:29.212Z,12.40
2023-03-30T05:20:59.221Z,12.40
2023-03-30T05:23:26.175Z,12.40
2023-03-30T05:25:55.048Z,12.40
2023-03-30T05:28:22.906Z,12.50
2023-03-30T05:30:56.011Z,12.50
2023-03-30T05:33:22.841Z,12.50
2023-03-30T05:35:49.734Z,12.50
2023-03-30T05:38:16.623Z,12.50
2023-03-30T05:40:44.801Z,12.50
2023-03-30T05:43:11.635Z,12.50
2023-03-30T05:45:38.562Z,12.50
2023-03-30T05:48:06.814Z,12.50
2023-03-30T05:50:33.576Z,12.50
2023-03-30T05:53:00.390Z,12.50
2023-03-30T05:55:27.752Z,12.50
2023-03-30T05:57:54.600Z,12.50
2023-03-30T06:00:22.813Z,12.50
2023-03-30T06:02:49.731Z,12.40
2023-03-30T06:05:16.461Z,12.30
2023-03-30T06:07:43.535Z,12.20
2023-03-30T06:10:10.550Z,12.10
2023-03-30T06:12:39.369Z,12.00
2023-03-30T06:15:09.006Z,11.90
2023-03-30T06:17:36.793Z,11.90
2023-03-30T06:20:09.845Z,11.80
2023-03-30T06:22:36.759Z,11.70
2023-03-30T06:25:03.611Z,11.60
2023-03-30T06:27:33.060Z,11.50
2023-03-30T06:29:59.762Z,11.50
2023-03-30T06:32:27.052Z,11.50
2023-03-30T06:34:53.979Z,11.40
2023-03-30T06:37:21.100Z,11.40
2023-03-30T06:39:47.767Z,11.30
2023-03-30T06:42:14.443Z,11.20
2023-03-30T06:44:41.100Z,11.20
2023-03-30T06:47:08.041Z,11.10
2023-03-30T06:49:34.764Z,11.10
2023-03-30T06:52:04.003Z,11.00
2023-03-30T06:54:32.341Z,11.00
2023-03-30T06:56:59.081Z,10.90
2023-03-30T06:59:25.931Z,10.80
2023-03-30T07:01:52.931Z,10.80
2023-03-30T07:04:19.704Z,10.70
2023-03-30T07:06:46.437Z,10.70
2023-03-30T07:09:13.788Z,10.60
2023-03-30T07:11:40.447Z,10.60
2023-03-30T07:14:10.053Z,10.50
2023-03-30T07:16:36.904Z,10.50
2023-03-30T07:19:03.815Z,10.40
2023-03-30T07:21:30.580Z,10.40
2023-03-30T07:23:58.023Z,10.40
2023-03-30T07:26:24.682Z,10.40
2023-03-30T07:28:51.438Z,10.50
2023-03-30T07:31:20.142Z,10.50
2023-03-30T07:33:46.831Z,10.50
2023-03-30T07:36:13.599Z,10.50
2023-03-30T07:38:40.559Z,10.60
2023-03-30T07:41:12.506Z,10.60
2023-03-30T07:43:40.718Z,10.60
2023-03-30T07:46:08.363Z,10.60
2023-03-30T07:48:35.717Z,10.60
2023-03-30T07:51:06.986Z,10.60
2023-03-30T07:53:33.823Z,10.60
2023-03-30T07:56:00.674Z,10.50
2023-03-30T07:58:27.628Z,10.60
2023-03-30T08:00:54.750Z,10.60
2023-03-30T08:03:25.180Z,10.70
2023-03-30T08:05:54.016Z,10.70
2023-03-30T08:08:20.862Z,10.60
2023-03-30T08:10:47.679Z,10.60
2023-03-30T08:13:14.787Z,10.50
2023-03-30T08:15:41.723Z,10.50
2023-03-30T08:18:08.731Z,10.50
2023-03-30T08:20:37.535Z,10.60
2023-03-30T08:23:05.298Z,10.50
2023-03-30T08:25:32.872Z,10.50
2023-03-30T08:27:59.740Z,10.40
2023-03-30T08:30:27.206Z,10.40
2023-03-30T08:32:53.976Z,10.40
2023-03-30T08:35:21.857Z,10.30
2023-03-30T08:37:48.673Z,10.40
2023-03-30T08:40:18.637Z,10.40
2023-03-30T08:42:52.248Z,10.40
2023-03-30T08:45:19.062Z,10.40
2023-03-30T08:47:51.600Z,10.50
2023-03-30T08:50:30.653Z,10.40
2023-03-30T08:52:57.585Z,10.50
2023-03-30T08:55:32.950Z,10.60
2023-03-30T08:58:33.005Z,10.70
2023-03-30T09:01:19.060Z,10.70
2023-03-30T09:03:51.939Z,10.80
2023-03-30T09:06:23.997Z,10.90
2023-03-30T09:08:51.884Z,11.10
2023-03-30T09:11:33.492Z,11.30
2023-03-30T09:14:02.962Z,11.70
2023-03-30T09:16:47.257Z,11.80
2023-03-30T09:19:31.294Z,12.00
2023-03-30T09:21:59.451Z,12.20
2023-03-30T09:24:27.243Z,12.50
2023-03-30T09:27:17.000Z,12.60
2023-03-30T09:29:47.610Z,12.80
2023-03-30T09:32:40.783Z,12.90
2023-03-30T09:35:14.942Z,12.80
2023-03-30T09:37:41.922Z,12.80
2023-03-30T09:40:24.703Z,12.60
2023-03-30T09:42:58.304Z,12.40
2023-03-30T09:45:33.288Z,12.30
2023-03-30T09:48:05.938Z,12.30
2023-03-30T09:50:43.969Z,12.30
2023-03-30T09:53:29.295Z,12.20
2023-03-30T09:56:16.727Z,12.10
2023-03-30T09:58:43.396Z,12.00
2023-03-30T10:01:13.118Z,12.10
2023-03-30T10:03:41.974Z,12.10
2023-03-30T10:06:17.632Z,12.20
2023-03-30T10:08:50.534Z,12.20
2023-03-30T10:11:22.085Z,12.30
2023-03-30T10:13:50.609Z,12.50
2023-03-30T10:16:28.646Z,12.70
2023-03-30T10:19:03.247Z,12.80
2023-03-30T10:21:40.183Z,12.90
2023-03-30T10:24:22.795Z,13.00
2023-03-30T10:26:53.078Z,13.10
2023-03-30T10:29:22.892Z,13.20
2023-03-30T10:32:02.257Z,13.20
2023-03-30T10:34:44.155Z,13.20
2023-03-30T10:37:33.216Z,13.10
2023-03-30T10:40:02.802Z,13.10
2023-03-30T10:42:31.792Z,13.00
2023-03-30T10:45:00.956Z,12.90
2023-03-30T10:47:52.420Z,12.80
2023-03-30T10:50:35.965Z,12.90
2023-03-30T10:53:19.873Z,12.90
2023-03-30T10:56:14.440Z,12.90
2023-03-30T10:59:13.265Z,13.00
2023-03-30T11:01:49.057Z,13.00
2023-03-30T11:04:24.730Z,13.10
2023-03-30T11:06:53.574Z,13.10
2023-03-30T11:09:24.917Z,13.20
2023-03-30T11:11:52.621Z,13.20
2023-03-30T11:15:01.111Z,13.30
2023-03-30T11:17:36.262Z,13.30
2023-03-30T11:20:38.143Z,13.30
2023-03-30T11:23:38.700Z,13.30
2023-03-30T11:26:12.444Z,13.30
2023-03-30T11:28:51.854Z,13.20
2023-03-30T11:31:31.316Z,13.20
2023-03-30T11:34:22.634Z,13.00
2023-03-30T11:37:02.156Z,13.00
2023-03-30T11:39:33.300Z,13.00
2023-03-30T11:42:22.012Z,13.00
2023-03-30T11:44:48.748Z,13.20
2023-03-30T11:47:28.324Z,13.20
2023-03-30T11:50:21.218Z,13.30
2023-03-30T11:52:53.959Z,13.40
2023-03-30T11:55:51.209Z,13.60
2023-03-30T11:58:31.341Z,13.50
2023-03-30T12:01:22.959Z,13.50
2023-03-30T12:04:05.041Z,13.70
2023-03-30T12:06:38.751Z,13.80
2023-03-30T12:09:25.699Z,13.90
2023-03-30T12:11:55.410Z,14.10
2023-03-30T12:14:31.214Z,14.30
2023-03-30T12:17:26.749Z,14.30
2023-03-30T12:20:00.732Z,14.30
2023-03-30T12:22:36.855Z,14.30
2023-03-30T12:25:22.276Z,14.30
2023-03-30T12:27:58.722Z,14.30
2023-03-30T12:30:31.958Z,14.30
2023-03-30T12:33:03.850Z,14.40
2023-03-30T12:35:56.069Z,14.50
2023-03-30T12:38:29.835Z,14.60
2023-03-30T12:41:14.552Z,14.70
2023-03-30T12:43:53.278Z,14.70
2023-03-30T12:46:41.886Z,14.70
2023-03-30T12:49:22.102Z,14.70
2023-03-30T12:51:52.375Z,14.60
2023-03-30T12:54:29.131Z,14.60
2023-03-30T12:57:26.172Z,14.60
2023-03-30T13:00:29.524Z,14.60
2023-03-30T13:03:25.818Z,14.60
2023-03-30T13:05:54.784Z,14.50
2023-03-30T13:08:31.300Z,14.60
2023-03-30T13:11:14.742Z,14.60
2023-03-30T13:13:55.163Z,14.70
2023-03-30T13:16:48.950Z,14.80
2023-03-30T13:19:27.935Z,14.90
2023-03-30T13:22:13.068Z,14.80
2023-03-30T13:24:43.385Z,14.80
2023-03-30T13:27:14.433Z,14.80
2023-03-30T13:29:42.006Z,14.90
2023-03-30T13:32:27.405Z,15.00
2023-03-30T13:35:09.284Z,14.90
2023-03-30T13:37:47.871Z,14.90
2023-03-30T13:40:38.615Z,15.00
2023-03-30T13:43:34.341Z,15.00
2023-03-30T13:46:26.157Z,14.90
2023-03-30T13:49:22.637Z,14.80
2023-03-30T13:51:49.433Z,14.90
2023-03-30T13:54:27.309Z,15.00
2023-03-30T13:57:04.413Z,14.90
2023-03-30T13:59:32.973Z,14.90
2023-03-30T14:02:01.353Z,14.90
2023-03-30T14:04:33.335Z,14.80
2023-03-30T14:07:10.174Z,14.70
2023-03-30T14:09:36.835Z,14.70
2023-03-30T14:12:04.966Z,14.60
2023-03-30T14:14:45.358Z,14.50
2023-03-30T14:17:19.236Z,14.40
2023-03-30T14:19:52.211Z,14.30
2023-03-30T14:22:21.924Z,14.30
2023-03-30T14:25:02.771Z,14.30
2023-03-30T14:27:38.271Z,14.20
2023-03-30T14:30:20.147Z,14.10
2023-03-30T14:32:46.961Z,13.80
2023-03-30T14:35:20.947Z,13.50
2023-03-30T14:37:52.201Z,13.30
2023-03-30T14:40:20.535Z,13.20
2023-03-30T14:42:47.408Z,13.10
2023-03-30T14:45:18.036Z,13.10
2023-03-30T14:47:46.668Z,13.10
2023-03-30T14:50:15.171Z,13.30
2023-03-30T14:52:44.366Z,13.50
2023-03-30T14:55:17.590Z,13.50
2023-03-30T14:57:46.656Z,13.50
2023-03-30T15:00:17.034Z,13.60
2023-03-30T15:02:44.440Z,13.70
2023-03-30T15:05:11.467Z,13.60
2023-03-30T15:07:38.219Z,13.60
2023-03-30T15:10:05.198Z,13.60
2023-03-30T15:12:37.092Z,13.50
2023-03-30T15:15:06.384Z,13.50
2023-03-30T15:17:33.697Z,13.50
2023-03-30T15:20:01.433Z,13.50
2023-03-30T15:22:33.108Z,13.30
2023-03-30T15:25:03.801Z,13.20
2023-03-30T15:27:30.714Z,13.10
2023-03-30T15:30:01.140Z,13.00
2023-03-30T15:32:36.130Z,12.80
2023-03-30T15:35:14.831Z,12.80
2023-03-30T15:38:10.781Z,12.70
2023-03-30T15:40:40.087Z,12.60
2023-03-30T15:43:19.571Z,12.60
2023-03-30T15:45:55.348Z,12.60
2023-03-30T15:48:36.181Z,12.60
2023-03-30T15:51:07.920Z,12.50
2023-03-30T15:53:39.881Z,12.50
2023-03-30T15:56:12.559Z,12.60
2023-03-30T15:58:39.694Z,12.60
2023-03-30T16:01:08.788Z,12.70
2023-03-30T16:03:42.074Z,12.70
2023-03-30T16:06:12.970Z,12.70
2023-03-30T16:08:43.447Z,12.80
2023-03-30T16:11:10.908Z,12.80
2023-03-30T16:13:46.546Z,12.70
2023-03-30T16:16:14.284Z,12.50
2023-03-30T16:18:42.718Z,12.40
2023-03-30T16:21:10.940Z,12.30
2023-03-30T16:23:38.149Z,12.30
2023-03-30T16:26:05.964Z,12.20
2023-03-30T16:28:32.855Z,12.30
2023-03-30T16:31:03.816Z,12.30
2023-03-30T16:33:30.644Z,12.30
2023-03-30T16:35:57.463Z,12.30
2023-03-30T16:38:24.130Z,12.40
2023-03-30T16:40:52.788Z,12.40
2023-03-30T16:43:19.435Z,12.40
2023-03-30T16:45:46.185Z,12.40
2023-03-30T16:48:15.066Z,12.40
2023-03-30T16:50:44.343Z,12.30
2023-03-30T16:53:11.497Z,12.10
2023-03-30T16:55:39.003Z,12.30
2023-03-30T16:58:07.484Z,12.20
2023-03-30T17:00:42.915Z,12.10
2023-03-30T17:03:09.883Z,12.10
2023-03-30T17:05:37.105Z,12.00
2023-03-30T17:08:24.865Z,12.00
2023-03-30T17:10:53.709Z,12.00
2023-03-30T17:13:20.981Z,11.90
2023-03-30T17:15:47.694Z,11.90
2023-03-30T17:18:20.378Z,11.80
2023-03-30T17:20:55.316Z,11.70
2023-03-30T17:23:23.725Z,11.60
2023-03-30T17:25:51.342Z,11.50
2023-03-30T17:28:26.208Z,11.40
2023-03-30T17:30:55.642Z,11.30
2023-03-30T17:33:22.716Z,11.10
2023-03-30T17:35:55.091Z,11.10
2023-03-30T17:38:22.568Z,11.10
2023-03-30T17:40:49.882Z,11.00
2023-03-30T17:43:16.772Z,11.00
2023-03-30T17:45:43.804Z,10.90
2023-03-30T17:48:17.485Z,10.90
2023-03-30T17:50:46.683Z,10.90
2023-03-30T17:53:17.315Z,10.90
2023-03-30T17:55:46.207Z,10.90
2023-03-30T17:58:23.187Z,10.90
2023-03-30T18:00:50.969Z,10.80
2023-03-30T18:03:20.487Z,10.90
2023-03-30T18:05:48.419Z,10.90
2023-03-30T18:08:17.851Z,10.90
2023-03-30T18:10:49.373Z,10.90
2023-03-30T18:13:16.473Z,10.80
2023-03-30T18:18:38.873Z,10.80
2023-03-30T18:21:06.784Z,10.70
2023-03-30T18:23:34.377Z,10.70
2023-03-30T18:26:02.297Z,10.70
2023-03-30T18:28:30.883Z,10.70
2023-03-30T18:30:58.494Z,10.60
2023-03-30T18:33:25.727Z,10.60
2023-03-30T18:35:53.382Z,10.60
2023-03-30T18:38:21.573Z,10.60
2023-03-30T18:40:50.531Z,10.50
2023-03-30T18:43:17.309Z,10.50
2023-03-30T18:45:49.457Z,10.50
2023-03-30T18:48:19.649Z,10.50
2023-03-30T18:50:47.823Z,10.50
2023-03-30T18:53:17.008Z,10.50
2023-03-30T18:55:45.958Z,10.50
2023-03-30T18:58:21.290Z,10.50
2023-03-30T19:00:49.002Z,10.50
2023-03-30T19:03:16.782Z,10.50
2023-03-30T19:05:44.829Z,10.50
2023-03-30T19:08:13.431Z,10.50
2023-03-30T19:10:41.472Z,10.50
2023-03-30T19:13:10.887Z,10.50
2023-03-30T19:15:37.638Z,10.50
2023-03-30T19:18:05.326Z,10.50
2023-03-30T19:20:34.331Z,10.50
2023-03-30T19:23:01.582Z,10.50
2023-03-30T19:25:28.862Z,10.50
2023-03-30T19:28:03.203Z,10.50
2023-03-30T19:30:32.281Z,10.50
2023-03-30T19:33:00.965Z,10.40
2023-03-30T19:35:52.742Z,10.40
2023-03-30T19:38:19.691Z,10.40
2023-03-30T19:40:49.765Z,10.40
2023-03-30T19:43:16.496Z,10.90
2023-03-30T19:45:43.174Z,10.40
2023-03-30T19:48:10.658Z,10.40
2023-03-30T19:50:39.362Z,10.40
2023-03-30T19:53:06.100Z,10.40
2023-03-30T19:55:32.766Z,10.40
2023-03-30T19:57:59.420Z,10.40
2023-03-30T20:00:26.243Z,10.40
2023-03-30T20:02:54.358Z,10.40
2023-03-30T20:05:23.460Z,10.30
2023-03-30T20:07:50.864Z,10.30
2023-03-30T20:54:17.961Z,10.20
2023-03-30T20:56:44.828Z,10.20
2023-03-30T20:59:11.808Z,10.20
2023-03-30T21:01:43.336Z,10.20
2023-03-30T21:04:10.543Z,10.20
2023-03-30T21:06:37.314Z,10.10
2023-03-30T21:09:07.056Z,10.20
2023-03-30T21:11:38.617Z,10.10
2023-03-30T21:14:06.859Z,10.10
2023-03-30T21:16:36.758Z,10.10
2023-03-30T21:19:05.400Z,10.00
2023-03-30T21:21:34.830Z,10.00
2023-03-30T21:24:01.922Z,10.00
2023-03-30T21:26:31.437Z,10.00
2023-03-30T21:28:58.177Z,10.00
2023-03-30T21:31:25.069Z,10.00
2023-03-30T21:33:51.985Z,10.00
2023-03-30T21:36:18.934Z,10.10
2023-03-30T21:38:45.796Z,10.10
2023-03-30T21:41:17.680Z,10.20
2023-03-30T21:43:47.242Z,10.20
2023-03-30T21:46:19.700Z,10.20
2023-03-30T21:48:47.431Z,10.30
2023-03-30T21:51:16.955Z,10.30
2023-03-30T21:53:45.450Z,10.30
2023-03-30T21:56:12.534Z,10.30
2023-03-30T21:58:39.715Z,10.30
2023-03-30T22:01:12.376Z,10.40
2023-03-30T22:03:41.370Z,10.40
2023-03-30T22:06:09.919Z,10.50
2023-03-30T22:08:36.967Z,10.80
2023-03-30T22:11:06.845Z,10.50
2023-03-30T22:13:33.869Z,10.70
2023-03-30T22:16:03.781Z,10.60
2023-03-30T22:18:31.131Z,10.60
2023-03-30T22:21:03.378Z,10.60
2023-03-30T22:23:30.891Z,10.70
2023-03-30T22:25:58.322Z,10.60
2023-03-30T22:28:25.581Z,10.60
2023-03-30T22:30:52.616Z,10.60
2023-03-30T22:33:19.633Z,10.60
2023-03-30T22:35:48.292Z,10.60
2023-03-30T22:38:16.492Z,10.50
2023-03-30T22:40:43.710Z,10.60
2023-03-30T22:43:11.973Z,10.60
2023-03-30T22:45:39.915Z,10.60
2023-03-30T22:48:07.216Z,10.60
2023-03-30T22:50:35.312Z,10.60
2023-03-30T22:53:02.101Z,10.60
2023-03-30T22:55:28.916Z,10.60
2023-03-30T22:57:57.047Z,10.60
2023-03-30T23:00:24.658Z,11.00
2023-03-30T23:02:51.886Z,10.60
2023-03-30T23:05:21.353Z,10.70
2023-03-30T23:07:49.398Z,10.60
2023-03-30T23:10:20.075Z,10.60
2023-03-30T23:12:46.948Z,10.60
2023-03-30T23:15:14.536Z,10.60
2023-03-30T23:17:43.060Z,10.70
2023-03-30T23:20:11.538Z,10.70
2023-03-30T23:22:38.689Z,10.70
2023-03-30T23:25:06.363Z,10.70
2023-03-30T23:27:34.053Z,10.60
2023-03-30T23:30:01.086Z,11.00
2023-03-30T23:32:27.947Z,10.50
2023-03-30T23:34:54.764Z,10.50
2023-03-30T23:37:24.374Z,10.30
2023-03-30T23:39:51.152Z,10.30
2023-03-30T23:42:18.189Z,10.20
2023-03-30T23:44:45.322Z,10.20
2023-03-30T23:47:12.151Z,10.60
2023-03-30T23:49:38.939Z,10.20
2023-03-30T23:52:05.976Z,10.20
2023-03-30T23:54:37.351Z,10.10
2023-03-30T23:57:07.151Z,10.80
2023-03-30T23:59:35.249Z,10.10
